Estación Meteorológica Peña el Pijo (Robertgarden) [ 02/03/23 04:06:44 CET ]

Fecha Hora Presion(HPa) Temp (°C) Humedad % Rocio (°C) Viento ( m/s) Direccion Lluvia 1Hora(mm) Lluvia 24H(mm) LLuvia Total(mm)
2012-Mar-21 01:01:14 1010.400 -3.3 89 -4.9       2.07 155.40
2012-Mar-21 02:03:12 1009.400 -4.4 89 -6.0       2.07 155.40
2012-Mar-21 03:01:16 1008.800 -5.3 89 -6.8       2.07 155.40
2012-Mar-21 04:01:13 1008.200 -6.2 89 -7.8       2.07 155.40
2012-Mar-21 05:01:15 1008.200 -7.0 89 -8.6       2.07 155.40
2012-Mar-21 06:01:18 1007.900 -5.9 90 -7.3       2.07 155.40
2012-Mar-21 07:01:16 1008.100 -6.9 89 -8.4       2.07 155.40
2012-Mar-21 08:01:13 1008.500 -7.6 89 -9.2       2.07 155.40
2012-Mar-21 09:01:13 1008.800 -0.7 88 -2.4       2.07 155.40
2012-Mar-21 10:01:14 1009.100 4.5 77 0.8       2.07 155.40
2012-Mar-21 11:01:13 1009.300 8.6 65 2.4       2.07 155.40
2012-Mar-21 12:01:16 1009.300 9.9 58 2.0       2.07 155.40
2012-Mar-21 13:01:13 1009.300 11.3 50 1.3       2.07 155.40
2012-Mar-21 14:01:13 1009.100 12.8 45 1.1       1.55 155.40
2012-Mar-21 15:01:12 1008.700 13.1 41 0.1       1.03 155.40
2012-Mar-21 16:01:14 1008.800 9.4 53 0.3       1.03 155.40
2012-Mar-21 17:01:17 1008.900 9.3 56 0.9         155.40
2012-Mar-21 18:01:15 1009.300 7.3 62 0.5         155.40
2012-Mar-21 19:01:14 1010.300 5.1 68 -0.3         155.40
2012-Mar-21 20:01:15 1010.600 3.4 74 -0.8         155.40
2012-Mar-21 21:01:12 1011.500 2.6 78 -0.9         155.40
2012-Mar-21 22:01:13 1012.200 2.3 83 -0.3         155.40
2012-Mar-21 23:01:13 1012.500 1.8 83 -0.8         155.40

Temperatura Máxima:13°    Temperatura Mínima:-7°
Presión Máxima:1012.500 Hpa    Presión Mínima:1007.900 Hpa


Volver